LGKRLGLR

Guest
Details From LGKR - IOANNIS KAPODISTRIAS INTL
To LGLR - LARISA
Flight Number -
Tags generated
Created
Modified
Stats Distance 119 nm / 219 km
Max Altitude 15,100 ft / 4,602 m
Waypoints 3
Social Downloads 0
Likes 0
Share VATSIM

Download

Looking for another format? Having issues loading an existing format? Contact us
Advertisement - Login to hide

Notes

Basic altitude profile: - Ascent Rate: 2500ft/min - Ascent Speed: 250kts - Cruise Altitude: 35000ft - Cruise Speed: 420kts - Descent Rate: 1500ft/min - Descent Speed: 250kts Options: - Use NATs: yes - Use PACOTS: yes - Use low airways: yes - Use high airways: yes

Route

LGKR YNN LGLR

ID Type Via Altitude Latitude Longitude Leg Dist Tot Dist Heading (true) Name
O LGKR APT - 0 ft / 0 m 39.60178˚ 19.91191˚ - 0 nm - IOANNIS KAPODISTRIAS INTL
YNN VOR - 15,100 ft / 4,602 m 39.70139˚ 20.82000˚ 42 nm 42 nm 82° / 82° IOANNINA VOR-DME
O LGLR APT - 0 ft / 0 m 39.64962˚ 22.46494˚ 76 nm 118 nm 92° / 93° LARISA

Altitude Profile

Advertisement - Login to hide

LGKR

Details ICAO LGKR (CFU)
Name IOANNIS KAPODISTRIAS INTL
Region Greece
Timezone Europe/Athens (UTC+2.0)
Stats Elevation 6 ft / 2 m (AMSL)
Location 39.601779° 19.911908°
Runways 1
Magnetic Variation 4.098° E

METAR

LGKR 140050Z 24004KT 9999 SCT008 SCT014 BKN025 15/11 Q1017 NOSIG

Decode

TAF

TAF LGKR 132300Z 1400/1424 17012KT 9999 SCT014 SCT025 PROB40 TEMPO 1400/1406 5000 RA SCT008 BKN025 BKN080 PROB30 TEMPO 1400/1403 3000 TSRA SCT006 FEW018CB BKN020 BKN080 BECMG 1400/1402 31010KT TEMPO 1412/1418 VRB05KT

Decode

Departure Runways

ID Width Length Bearing (true) Bearing (mag) Surface Threshold Offset Overrun Length
17 148 ft / 45 m 7,815 ft / 2,382 m 168.81° 164.71° Asphalt 1,348 ft / 411 m 0 ft / 0 m
35 148 ft / 45 m 7,815 ft / 2,382 m 348.81° 344.71° Asphalt 213 ft / 65 m 0 ft / 0 m

LGLR

Details ICAO LGLR (LRA)
Name LARISA
Region Greece
Timezone Europe/Athens (UTC+2.0)
Stats Elevation 241 ft / 73 m (AMSL)
Location 39.649618° 22.464939°
Runways 2
Magnetic Variation 4.462° E

METAR

LGLR 140050Z 00000KT 9999 FEW030 SCT080 09/05 Q1015 RMK SCT180 BLU

Decode

TAF

Not found

Destination Runways

ID Width Length Bearing (true) Bearing (mag) Surface Threshold Offset Overrun Length
08 148 ft / 45 m 9,691 ft / 2,954 m 78.75° 74.29° Asphalt 0 ft / 0 m 0 ft / 0 m
08R 98 ft / 30 m 10,749 ft / 3,276 m 79.09° 74.63° Asphalt 879 ft / 268 m 0 ft / 0 m
26 148 ft / 45 m 9,691 ft / 2,954 m 258.77° 254.31° Asphalt 0 ft / 0 m 0 ft / 0 m
26L 98 ft / 30 m 10,749 ft / 3,276 m 259.12° 254.66° Asphalt 1,247 ft / 380 m 853 ft / 260 m